createdAt,value
2023-03-07T00:02:15.870Z,4.00
2023-03-07T00:04:46.709Z,4.00
2023-03-07T00:07:14.375Z,4.00
2023-03-07T00:09:41.278Z,4.00
2023-03-07T00:12:09.095Z,4.00
2023-03-07T00:14:36.175Z,4.00
2023-03-07T00:17:03.228Z,4.00
2023-03-07T00:19:30.158Z,4.00
2023-03-07T00:21:57.086Z,4.00
2023-03-07T00:24:23.974Z,3.90
2023-03-07T00:26:50.884Z,3.90
2023-03-07T00:29:17.802Z,3.80
2023-03-07T00:31:44.742Z,3.70
2023-03-07T00:34:11.722Z,3.70
2023-03-07T00:36:38.608Z,3.80
2023-03-07T00:39:05.710Z,3.80
2023-03-07T00:41:32.622Z,3.70
2023-03-07T00:43:59.505Z,3.70
2023-03-07T00:46:26.919Z,3.60
2023-03-07T00:48:53.901Z,3.50
2023-03-07T00:51:22.557Z,3.50
2023-03-07T00:53:49.644Z,3.60
2023-03-07T00:56:21.333Z,3.50
2023-03-07T00:58:48.797Z,3.50
2023-03-07T01:01:18.791Z,3.60
2023-03-07T01:03:45.774Z,3.50
2023-03-07T01:06:14.941Z,3.50
2023-03-07T01:08:41.895Z,3.50
2023-03-07T01:11:08.830Z,3.60
2023-03-07T01:13:39.018Z,3.50
2023-03-07T01:16:16.901Z,3.50
2023-03-07T01:18:49.831Z,3.50
2023-03-07T01:21:19.896Z,3.50
2023-03-07T01:23:47.115Z,3.60
2023-03-07T01:26:19.363Z,3.60
2023-03-07T01:28:46.480Z,3.60
2023-03-07T01:31:14.054Z,3.60
2023-03-07T01:33:41.037Z,3.60
2023-03-07T01:36:22.548Z,3.60
2023-03-07T01:38:49.732Z,3.60
2023-03-07T01:41:16.841Z,3.60
2023-03-07T01:43:44.259Z,3.70
2023-03-07T01:46:17.266Z,3.60
2023-03-07T01:48:55.327Z,3.60
2023-03-07T01:51:22.368Z,3.60
2023-03-07T01:53:49.926Z,3.60
2023-03-07T01:56:16.834Z,3.60
2023-03-07T01:58:46.187Z,3.60
2023-03-07T02:01:14.035Z,3.60
2023-03-07T02:03:51.992Z,3.60
2023-03-07T02:06:18.910Z,3.50
2023-03-07T02:08:46.133Z,3.50
2023-03-07T02:11:13.125Z,3.60
2023-03-07T02:13:40.061Z,3.60
2023-03-07T02:16:07.814Z,3.60
2023-03-07T02:18:37.942Z,3.60
2023-03-07T02:21:09.488Z,3.60
2023-03-07T02:23:55.178Z,3.60
2023-03-07T02:26:31.102Z,3.60
2023-03-07T02:28:59.884Z,3.60
2023-03-07T02:31:27.137Z,3.60
2023-03-07T02:33:54.091Z,3.60
2023-03-07T02:36:23.921Z,3.60
2023-03-07T02:38:51.519Z,3.60
2023-03-07T02:41:20.536Z,3.60
2023-03-07T02:43:47.531Z,3.70
2023-03-07T02:46:14.677Z,3.60
2023-03-07T02:48:41.626Z,3.60
2023-03-07T02:51:08.533Z,3.60
2023-03-07T02:53:35.697Z,3.60
2023-03-07T02:56:03.344Z,3.70
2023-03-07T02:58:30.233Z,3.60
2023-03-07T03:00:57.134Z,3.60
2023-03-07T03:03:24.046Z,3.60
2023-03-07T03:05:50.934Z,3.70
2023-03-07T03:08:17.834Z,3.70
2023-03-07T03:10:44.785Z,3.70
2023-03-07T03:13:11.664Z,3.70
2023-03-07T03:15:38.548Z,3.70
2023-03-07T03:18:05.945Z,3.70
2023-03-07T03:20:32.859Z,3.80
2023-03-07T03:22:59.760Z,3.80
2023-03-07T03:25:27.298Z,3.80
2023-03-07T03:27:54.228Z,3.80
2023-03-07T03:30:21.139Z,3.80
2023-03-07T03:32:48.039Z,3.70
2023-03-07T03:35:15.007Z,3.70
2023-03-07T03:37:41.907Z,3.70
2023-03-07T03:40:14.824Z,3.70
2023-03-07T03:42:42.748Z,3.70
2023-03-07T03:45:10.864Z,3.70
2023-03-07T03:47:38.275Z,3.70
2023-03-07T03:50:05.630Z,3.70
2023-03-07T03:52:32.694Z,3.70
2023-03-07T03:54:59.603Z,3.70
2023-03-07T03:57:26.529Z,3.70
2023-03-07T03:59:53.750Z,3.70
2023-03-07T04:02:20.770Z,3.70
2023-03-07T04:04:47.742Z,3.70
2023-03-07T04:07:14.698Z,3.70
2023-03-07T04:09:41.637Z,3.70
2023-03-07T04:12:08.706Z,3.70
2023-03-07T04:14:35.594Z,3.60
2023-03-07T04:17:02.547Z,3.60
2023-03-07T04:19:29.668Z,3.60
2023-03-07T04:21:56.681Z,3.50
2023-03-07T04:24:23.592Z,3.50
2023-03-07T04:26:50.487Z,3.50
2023-03-07T04:29:17.376Z,3.50
2023-03-07T04:31:44.686Z,3.50
2023-03-07T04:34:11.681Z,3.50
2023-03-07T04:36:38.584Z,3.50
2023-03-07T04:39:05.650Z,3.50
2023-03-07T04:41:33.565Z,3.50
2023-03-07T04:44:00.455Z,3.50
2023-03-07T06:03:23.278Z,3.60
2023-03-07T06:05:50.660Z,3.60
2023-03-07T06:08:17.561Z,3.60
2023-03-07T06:10:44.563Z,3.60
2023-03-07T06:13:16.854Z,3.40
2023-03-07T06:15:44.176Z,3.40
2023-03-07T06:18:14.421Z,3.40
2023-03-07T06:20:41.315Z,3.30
2023-03-07T06:23:08.249Z,3.20
2023-03-07T06:25:35.568Z,3.20
2023-03-07T06:28:02.584Z,3.20
2023-03-07T06:30:29.514Z,3.30
2023-03-07T06:32:56.421Z,3.10
2023-03-07T06:35:23.315Z,3.00
2023-03-07T06:37:51.143Z,2.80
2023-03-07T06:40:18.085Z,2.70
2023-03-07T06:42:45.023Z,2.70
2023-03-07T06:45:11.966Z,2.70
2023-03-07T06:47:38.887Z,2.70
2023-03-07T06:50:07.312Z,2.60
2023-03-07T06:52:34.289Z,2.50
2023-03-07T06:55:01.469Z,2.50
2023-03-07T06:57:29.532Z,2.40
2023-03-07T06:59:56.542Z,2.40
2023-03-07T07:02:23.563Z,2.50
2023-03-07T07:04:50.626Z,2.40
2023-03-07T07:07:17.596Z,2.50
2023-03-07T07:09:44.575Z,2.40
2023-03-07T07:12:11.811Z,2.40
2023-03-07T07:14:38.827Z,2.50
2023-03-07T07:17:06.091Z,2.40
2023-03-07T07:19:34.131Z,2.40
2023-03-07T07:22:01.082Z,2.40
2023-03-07T07:24:28.040Z,2.50
2023-03-07T07:26:55.974Z,2.40
2023-03-07T07:29:23.345Z,2.30
2023-03-07T07:31:50.396Z,2.40
2023-03-07T07:34:17.540Z,2.40
2023-03-07T07:36:44.460Z,2.50
2023-03-07T07:39:11.376Z,2.60
2023-03-07T07:41:38.529Z,2.50
2023-03-07T07:44:06.157Z,2.50
2023-03-07T07:46:33.071Z,2.50
2023-03-07T07:49:00.000Z,2.50
2023-03-07T07:51:26.895Z,2.50
2023-03-07T07:53:53.849Z,2.40
2023-03-07T07:56:20.797Z,2.40
2023-03-07T07:58:48.145Z,2.40
2023-03-07T08:01:22.379Z,2.50
2023-03-07T08:03:49.452Z,2.40
2023-03-07T08:06:20.633Z,2.40
2023-03-07T08:08:48.238Z,2.40
2023-03-07T08:11:16.149Z,2.50
2023-03-07T08:13:43.100Z,2.60
2023-03-07T08:16:15.200Z,2.60
2023-03-07T08:18:42.387Z,2.50
2023-03-07T08:21:09.348Z,2.50
2023-03-07T08:23:37.136Z,2.50
2023-03-07T08:26:06.338Z,2.50
2023-03-07T08:28:33.629Z,2.60
2023-03-07T08:31:12.993Z,2.40
2023-03-07T08:33:40.027Z,2.40
2023-03-07T08:36:07.825Z,2.40
2023-03-07T08:38:35.173Z,2.40
2023-03-07T08:41:06.962Z,2.50
2023-03-07T08:43:37.602Z,2.50
2023-03-07T08:46:04.623Z,2.60
2023-03-07T08:48:31.790Z,2.70
2023-03-07T08:51:10.026Z,2.70
2023-03-07T08:53:37.556Z,2.80
2023-03-07T08:56:08.693Z,2.80
2023-03-07T08:58:36.065Z,2.90
2023-03-07T09:01:04.286Z,2.90
2023-03-07T09:03:31.260Z,2.90
2023-03-07T09:05:58.173Z,2.90
2023-03-07T09:08:25.158Z,3.00
2023-03-07T09:10:52.076Z,3.00
2023-03-07T09:13:19.137Z,3.10
2023-03-07T09:15:46.048Z,3.20
2023-03-07T09:18:13.085Z,3.20
2023-03-07T09:20:40.262Z,3.30
2023-03-07T09:23:08.287Z,3.20
2023-03-07T09:25:35.473Z,3.30
2023-03-07T09:28:02.536Z,3.30
2023-03-07T09:30:29.442Z,3.40
2023-03-07T09:32:57.098Z,3.40
2023-03-07T09:35:24.561Z,3.40
2023-03-07T09:37:51.530Z,3.40
2023-03-07T09:40:20.261Z,3.50
2023-03-07T09:42:58.327Z,3.50
2023-03-07T09:45:50.108Z,3.60
2023-03-07T09:48:32.192Z,3.50
2023-03-07T09:51:11.894Z,3.50
2023-03-07T09:54:22.091Z,3.50
2023-03-07T09:56:57.281Z,3.70
2023-03-07T09:59:42.982Z,3.70
2023-03-07T10:02:29.275Z,3.80
2023-03-07T10:05:10.237Z,4.00
2023-03-07T10:07:37.694Z,3.80
2023-03-07T10:10:30.144Z,3.80
2023-03-07T10:13:28.103Z,3.90
2023-03-07T10:15:56.996Z,4.00
2023-03-07T10:18:46.536Z,3.80
2023-03-07T10:21:31.694Z,4.00
2023-03-07T10:24:17.796Z,3.90
2023-03-07T10:27:01.193Z,4.00
2023-03-07T10:29:31.348Z,4.10
2023-03-07T10:32:07.433Z,4.10
2023-03-07T10:34:37.042Z,4.00
2023-03-07T10:37:19.108Z,4.10
2023-03-07T10:39:52.763Z,4.00
2023-03-07T10:42:27.046Z,4.20
2023-03-07T10:44:54.049Z,4.20
2023-03-07T10:47:23.759Z,4.30
2023-03-07T10:49:53.676Z,4.20
2023-03-07T10:52:41.408Z,4.30
2023-03-07T10:55:31.316Z,4.30
2023-03-07T10:58:15.051Z,4.10
2023-03-07T11:00:44.547Z,4.00
2023-03-07T11:03:53.284Z,4.00
2023-03-07T11:06:27.198Z,4.20
2023-03-07T11:08:56.147Z,4.00
2023-03-07T11:11:25.295Z,4.10
2023-03-07T11:14:14.076Z,4.00
2023-03-07T11:17:00.804Z,3.90
2023-03-07T11:19:42.793Z,3.80
2023-03-07T11:22:29.108Z,3.80
2023-03-07T11:25:15.629Z,3.40
2023-03-07T11:27:45.432Z,3.00
2023-03-07T11:30:21.275Z,2.50
2023-03-07T11:32:52.733Z,2.40
2023-03-07T11:35:22.286Z,2.30
2023-03-07T11:38:02.084Z,2.30
2023-03-07T11:40:32.371Z,2.20
2023-03-07T11:43:20.745Z,2.10
2023-03-07T11:45:59.936Z,2.10
2023-03-07T11:48:52.265Z,2.20
2023-03-07T11:51:29.653Z,2.40
2023-03-07T11:54:03.509Z,2.40
2023-03-07T11:56:39.072Z,2.60
2023-03-07T11:59:30.883Z,2.80
2023-03-07T12:02:02.491Z,2.80
2023-03-07T12:04:41.795Z,2.80
2023-03-07T12:07:48.605Z,2.80
2023-03-07T12:10:20.316Z,3.10
2023-03-07T12:13:14.976Z,2.90
2023-03-07T12:16:00.957Z,2.90
2023-03-07T12:18:46.862Z,3.20
2023-03-07T12:21:30.272Z,3.30
2023-03-07T12:24:00.225Z,3.50
2023-03-07T12:26:49.632Z,3.50
2023-03-07T12:29:31.879Z,3.50
2023-03-07T12:32:00.624Z,3.70
2023-03-07T12:34:42.944Z,3.80
2023-03-07T12:37:10.979Z,3.90
2023-03-07T12:39:53.968Z,3.90
2023-03-07T12:42:41.070Z,3.90
2023-03-07T12:45:08.056Z,3.80
2023-03-07T12:47:40.101Z,3.90
2023-03-07T12:50:11.200Z,3.90
2023-03-07T12:52:41.091Z,4.00
2023-03-07T12:55:17.076Z,4.10
2023-03-07T12:57:46.579Z,4.30
2023-03-07T13:00:14.696Z,4.00
2023-03-07T13:02:53.404Z,3.80
2023-03-07T13:05:21.068Z,3.70
2023-03-07T13:07:48.452Z,3.90
2023-03-07T13:10:20.973Z,3.90
2023-03-07T13:12:48.839Z,4.00
2023-03-07T13:15:18.665Z,3.90
2023-03-07T13:17:45.588Z,3.90
2023-03-07T13:20:15.137Z,3.70
2023-03-07T13:22:41.946Z,2.90
2023-03-07T13:25:26.633Z,2.80
2023-03-07T13:28:03.687Z,2.70
2023-03-07T13:30:31.579Z,2.60
2023-03-07T13:33:01.991Z,2.70
2023-03-07T13:35:29.120Z,2.70
2023-03-07T13:38:13.355Z,2.90
2023-03-07T13:40:49.283Z,2.90
2023-03-07T13:43:19.538Z,3.00
2023-03-07T13:45:56.444Z,3.00
2023-03-07T13:48:29.072Z,3.20
2023-03-07T13:50:58.791Z,3.30
2023-03-07T13:53:35.637Z,3.20
2023-03-07T13:56:09.184Z,3.20
2023-03-07T13:58:46.209Z,3.30
2023-03-07T14:01:23.775Z,3.20
2023-03-07T14:04:08.433Z,3.20
2023-03-07T14:06:42.510Z,3.30
2023-03-07T14:09:17.521Z,3.20
2023-03-07T14:12:09.601Z,3.20
2023-03-07T14:14:57.786Z,3.20
2023-03-07T14:17:24.571Z,3.20
2023-03-07T14:20:21.259Z,3.00
2023-03-07T14:23:11.194Z,3.00
2023-03-07T14:25:40.057Z,3.10
2023-03-07T14:28:22.566Z,3.10
2023-03-07T14:30:59.466Z,3.10
2023-03-07T14:33:34.054Z,3.10
2023-03-07T14:36:01.577Z,3.20
2023-03-07T14:38:28.747Z,3.20
2023-03-07T14:41:02.052Z,3.10
2023-03-07T14:43:32.606Z,3.10
2023-03-07T14:46:05.998Z,3.10
2023-03-07T14:48:54.566Z,3.10
2023-03-07T14:51:26.044Z,3.10
2023-03-07T14:53:53.063Z,3.00
2023-03-07T14:56:27.829Z,3.00
2023-03-07T14:58:56.313Z,2.90
2023-03-07T15:01:23.522Z,2.90
2023-03-07T15:03:52.410Z,2.90
2023-03-07T15:06:21.577Z,2.90
2023-03-07T15:08:52.374Z,2.80
2023-03-07T15:11:42.116Z,3.00
2023-03-07T15:14:39.753Z,3.00
2023-03-07T15:17:14.824Z,3.00
2023-03-07T15:19:48.253Z,3.10
2023-03-07T15:22:26.997Z,2.90
2023-03-07T15:24:54.325Z,2.80
2023-03-07T15:27:31.529Z,2.80
2023-03-07T15:30:00.973Z,2.80
2023-03-07T15:32:40.189Z,2.80
2023-03-07T15:35:11.028Z,2.70
2023-03-07T15:37:55.967Z,2.90
2023-03-07T15:40:31.162Z,3.10
2023-03-07T15:43:04.739Z,3.10
2023-03-07T15:45:39.998Z,3.00
2023-03-07T15:48:27.002Z,3.10
2023-03-07T15:50:59.258Z,3.10
2023-03-07T15:53:37.574Z,3.10
2023-03-07T15:56:16.639Z,3.10
2023-03-07T15:58:43.557Z,3.10
2023-03-07T16:01:24.388Z,3.00
2023-03-07T16:03:55.958Z,2.90
2023-03-07T16:06:38.191Z,2.70
2023-03-07T16:09:08.309Z,2.70
2023-03-07T16:11:37.703Z,2.60
2023-03-07T16:14:05.061Z,2.60
2023-03-07T16:16:31.987Z,2.60
2023-03-07T16:18:58.975Z,2.50
2023-03-07T16:21:26.284Z,2.60
2023-03-07T16:23:53.207Z,2.60
2023-03-07T16:26:22.401Z,2.60
2023-03-07T16:28:52.870Z,2.60
2023-03-07T16:31:20.487Z,2.60
2023-03-07T16:33:47.927Z,2.50
2023-03-07T16:36:15.267Z,2.50
2023-03-07T16:38:42.278Z,2.50
2023-03-07T16:41:20.662Z,2.40
2023-03-07T16:43:53.653Z,2.40
2023-03-07T16:46:20.671Z,2.40
2023-03-07T16:48:47.672Z,2.40
2023-03-07T16:51:21.022Z,2.50
2023-03-07T16:53:49.256Z,2.40
2023-03-07T16:56:29.907Z,2.30
2023-03-07T16:58:57.210Z,2.30
2023-03-07T17:01:24.175Z,2.40
2023-03-07T17:03:51.163Z,2.30
2023-03-07T17:06:19.120Z,2.30
2023-03-07T17:08:46.072Z,2.20
2023-03-07T17:11:33.454Z,2.30
2023-03-07T17:14:02.625Z,2.20
2023-03-07T17:16:29.528Z,2.20
2023-03-07T17:18:56.503Z,2.20
2023-03-07T17:21:23.465Z,2.20
2023-03-07T17:23:50.490Z,2.10
2023-03-07T17:26:19.725Z,2.20
2023-03-07T17:28:46.705Z,2.10
2023-03-07T17:31:13.711Z,2.20
2023-03-07T17:33:40.732Z,2.00
2023-03-07T17:36:10.429Z,2.00
2023-03-07T17:38:37.700Z,2.00
2023-03-07T17:41:04.964Z,2.10
2023-03-07T17:43:33.506Z,2.20
2023-03-07T17:46:00.788Z,2.20
2023-03-07T17:48:27.767Z,2.20
2023-03-07T17:50:54.673Z,2.30
2023-03-07T17:53:21.590Z,2.30
2023-03-07T17:55:48.507Z,2.30
2023-03-07T17:58:15.440Z,2.30
2023-03-07T18:00:42.353Z,2.20
2023-03-07T18:03:09.338Z,2.30
2023-03-07T18:05:37.021Z,2.20
2023-03-07T18:08:05.115Z,2.20
2023-03-07T18:10:32.360Z,2.20
2023-03-07T18:12:59.362Z,2.00
2023-03-07T18:15:27.820Z,2.00
2023-03-07T18:17:54.726Z,1.90
2023-03-07T18:20:21.854Z,1.90
2023-03-07T18:22:49.088Z,1.90
2023-03-07T18:25:17.188Z,1.90
2023-03-07T18:27:44.798Z,1.80
2023-03-07T18:30:12.296Z,1.80
2023-03-07T18:32:39.548Z,1.80
2023-03-07T18:35:07.973Z,1.90
2023-03-07T18:37:34.919Z,1.80
2023-03-07T18:40:02.118Z,1.90
2023-03-07T18:42:29.071Z,2.00
2023-03-07T18:44:56.095Z,1.90
2023-03-07T18:47:23.014Z,2.00
2023-03-07T18:49:51.334Z,2.00
2023-03-07T18:52:18.887Z,2.00
2023-03-07T18:54:45.837Z,2.10
2023-03-07T18:57:12.759Z,2.10
2023-03-07T18:59:39.701Z,2.10
2023-03-07T19:02:07.589Z,2.20
2023-03-07T19:04:34.639Z,2.20
2023-03-07T19:07:01.583Z,2.10
2023-03-07T19:09:30.136Z,2.10
2023-03-07T19:11:57.053Z,2.00
2023-03-07T19:14:23.958Z,1.80
2023-03-07T19:16:51.028Z,1.70
2023-03-07T19:19:17.970Z,1.70
2023-03-07T19:21:44.866Z,1.80
2023-03-07T19:24:12.061Z,1.80
2023-03-07T19:26:40.195Z,1.80
2023-03-07T19:29:09.796Z,1.90
2023-03-07T19:31:41.096Z,2.00
2023-03-07T19:34:09.236Z,2.00
2023-03-07T19:36:37.499Z,2.10
2023-03-07T19:39:05.040Z,2.10
2023-03-07T19:41:32.320Z,2.00
2023-03-07T19:44:00.153Z,1.90
2023-03-07T19:46:27.304Z,1.80
2023-03-07T19:48:54.333Z,1.60
2023-03-07T19:51:23.331Z,1.50
2023-03-07T19:53:50.561Z,1.40
2023-03-07T19:56:21.550Z,1.40
2023-03-07T19:58:48.779Z,1.40
2023-03-07T20:01:17.499Z,1.40
2023-03-07T20:03:44.721Z,1.40
2023-03-07T20:06:15.072Z,1.40
2023-03-07T20:08:41.993Z,1.40
2023-03-07T20:11:09.781Z,1.40
2023-03-07T20:13:40.426Z,1.30
2023-03-07T20:16:10.319Z,1.30
2023-03-07T20:18:38.281Z,1.30
2023-03-07T20:21:10.490Z,1.30
2023-03-07T20:23:37.827Z,1.40
2023-03-07T20:26:10.335Z,1.30
2023-03-07T20:28:37.657Z,1.40
2023-03-07T20:31:08.777Z,1.40
2023-03-07T20:33:37.313Z,1.30
2023-03-07T20:36:07.310Z,1.20
2023-03-07T20:38:34.963Z,1.10
2023-03-07T20:41:03.513Z,1.20
2023-03-07T20:43:31.118Z,1.10
2023-03-07T20:46:06.613Z,1.10
2023-03-07T20:48:34.131Z,1.20
2023-03-07T20:51:05.769Z,0.90
2023-03-07T20:53:33.438Z,0.90
2023-03-07T20:56:04.361Z,0.90
2023-03-07T20:58:32.146Z,1.00
2023-03-07T21:00:59.495Z,0.90
2023-03-07T21:03:26.810Z,1.00
2023-03-07T21:05:58.282Z,1.00
2023-03-07T21:08:25.420Z,1.00
2023-03-07T21:11:04.574Z,1.20
2023-03-07T21:13:32.185Z,1.10
2023-03-07T21:16:00.793Z,1.10
2023-03-07T21:18:27.793Z,1.10
2023-03-07T21:20:54.739Z,1.00
2023-03-07T21:23:21.705Z,1.10
2023-03-07T21:25:48.609Z,1.10
2023-03-07T21:28:15.547Z,1.00
2023-03-07T21:30:42.846Z,1.00
2023-03-07T21:33:10.887Z,0.90
2023-03-07T21:35:38.550Z,0.90
2023-03-07T21:38:05.760Z,0.90
2023-03-07T21:40:35.905Z,0.80
2023-03-07T21:43:02.892Z,0.90
2023-03-07T21:45:32.195Z,0.80
2023-03-07T21:47:59.189Z,0.80
2023-03-07T21:50:26.162Z,0.90
2023-03-07T21:52:53.094Z,0.90
2023-03-07T21:55:20.039Z,0.90
2023-03-07T21:57:46.941Z,0.90
2023-03-07T22:00:16.612Z,0.90
2023-03-07T22:02:44.346Z,0.80
2023-03-07T22:05:11.838Z,0.80
2023-03-07T22:07:38.898Z,0.90
2023-03-07T22:10:09.613Z,0.80
2023-03-07T22:12:39.274Z,0.80
2023-03-07T22:15:07.834Z,0.90
2023-03-07T22:17:34.759Z,0.90
2023-03-07T22:20:01.651Z,0.80
2023-03-07T22:22:28.589Z,0.90
2023-03-07T22:24:55.478Z,0.80
2023-03-07T22:27:22.384Z,0.90
2023-03-07T22:29:49.370Z,0.90
2023-03-07T22:32:16.425Z,0.90
2023-03-07T22:34:43.412Z,0.90
2023-03-07T22:37:10.368Z,0.90
2023-03-07T22:39:40.384Z,0.90
2023-03-07T22:42:07.902Z,0.80
2023-03-07T22:44:34.914Z,0.80
2023-03-07T22:47:01.919Z,0.70
2023-03-07T22:49:28.952Z,0.70
2023-03-07T22:51:56.058Z,0.80
2023-03-07T22:54:23.544Z,0.80
2023-03-07T22:56:50.458Z,0.80
2023-03-07T22:59:17.440Z,0.70
2023-03-07T23:01:44.481Z,0.80
2023-03-07T23:04:12.216Z,0.80
2023-03-07T23:06:39.210Z,0.70
2023-03-07T23:09:07.817Z,0.70
2023-03-07T23:11:36.145Z,0.70
2023-03-07T23:14:04.634Z,0.70
2023-03-07T23:16:32.177Z,0.70
2023-03-07T23:18:59.432Z,0.70
2023-03-07T23:21:31.643Z,0.60
2023-03-07T23:23:59.163Z,0.50
2023-03-07T23:26:28.164Z,0.50
2023-03-07T23:28:55.640Z,0.50
2023-03-07T23:31:27.838Z,0.60
2023-03-07T23:33:59.372Z,0.60
2023-03-07T23:36:27.690Z,0.50
2023-03-07T23:38:55.060Z,0.50
2023-03-07T23:41:22.644Z,0.50
2023-03-07T23:43:54.010Z,0.50
2023-03-07T23:46:20.945Z,0.50
2023-03-07T23:48:47.859Z,0.50
2023-03-07T23:51:15.044Z,0.50
2023-03-07T23:53:42.248Z,0.50
2023-03-07T23:56:10.144Z,0.50
2023-03-07T23:58:37.352Z,0.50
